createdAt,value
2019-01-25T00:02:45.363Z,31.90
2019-01-25T00:05:33.354Z,32.93
2019-01-25T00:08:13.936Z,31.27
2019-01-25T00:10:54.823Z,33.98
2019-01-25T00:13:35.251Z,33.20
2019-01-25T00:16:15.589Z,32.17
2019-01-25T00:18:56.086Z,32.20
2019-01-25T00:21:36.515Z,32.05
2019-01-25T00:24:17.119Z,31.57
2019-01-25T00:26:57.655Z,33.48
2019-01-25T00:29:38.447Z,34.08
2019-01-25T00:32:19.140Z,30.50
2019-01-25T00:34:59.635Z,30.90
2019-01-25T00:37:40.392Z,31.77
2019-01-25T00:40:21.018Z,33.28
2019-01-25T00:43:01.474Z,31.00
2019-01-25T00:45:42.491Z,33.48
2019-01-25T00:48:23.079Z,32.10
2019-01-25T00:51:03.939Z,33.83
2019-01-25T00:53:44.667Z,31.65
2019-01-25T00:56:25.371Z,29.57
2019-01-25T00:59:05.999Z,31.00
2019-01-25T01:01:46.602Z,31.15
2019-01-25T01:04:27.011Z,30.62
2019-01-25T01:07:06.327Z,30.62
2019-01-25T01:09:54.350Z,31.45
2019-01-25T01:12:42.367Z,29.35
2019-01-25T01:15:30.439Z,30.27
2019-01-25T01:18:30.395Z,28.52
2019-01-25T01:21:08.324Z,29.40
2019-01-25T01:23:56.351Z,31.68
2019-01-25T01:26:44.483Z,28.80
2019-01-25T01:29:32.503Z,30.30
2019-01-25T01:35:29.598Z,30.25
2019-01-25T01:38:17.611Z,31.33
2019-01-25T01:41:05.674Z,29.45
2019-01-25T01:43:53.690Z,29.70
2019-01-25T01:46:41.703Z,31.25
2019-01-25T01:49:29.709Z,29.77
2019-01-25T01:52:17.716Z,29.57
2019-01-25T01:55:05.920Z,29.10
2019-01-25T01:57:54.024Z,28.85
2019-01-25T02:00:42.175Z,28.60
2019-01-25T02:03:30.256Z,29.77
2019-01-25T02:06:18.335Z,29.72
2019-01-25T02:08:58.851Z,31.27
2019-01-25T02:11:39.607Z,28.50
2019-01-25T02:14:20.455Z,30.50
2019-01-25T02:17:01.159Z,30.97
2019-01-25T02:19:41.684Z,32.67
2019-01-25T02:22:22.563Z,30.20
2019-01-25T02:25:03.112Z,32.70
2019-01-25T02:27:43.990Z,32.00
2019-01-25T02:30:24.735Z,31.45
2019-01-25T02:33:05.525Z,33.00
2019-01-25T02:35:46.199Z,31.97
2019-01-25T02:38:26.663Z,30.48
2019-01-25T02:41:08.579Z,31.73
2019-01-25T02:43:48.956Z,31.87
2019-01-25T02:46:29.755Z,33.90
2019-01-25T02:49:10.617Z,32.78
2019-01-25T02:51:51.367Z,31.20
2019-01-25T02:54:32.043Z,28.20
2019-01-25T02:57:13.121Z,33.75
2019-01-25T02:59:53.820Z,32.63
2019-01-25T03:02:34.501Z,32.03
2019-01-25T03:05:15.245Z,33.13
2019-01-25T03:07:55.815Z,31.17
2019-01-25T03:10:36.587Z,30.10
2019-01-25T03:13:17.110Z,31.00
2019-01-25T03:15:57.726Z,34.40
2019-01-25T03:18:38.370Z,33.85
2019-01-25T03:21:19.771Z,31.87
2019-01-25T03:24:00.478Z,29.18
2019-01-25T03:26:40.912Z,35.25
2019-01-25T03:29:21.408Z,36.48
2019-01-25T03:32:01.973Z,35.80
2019-01-25T03:34:42.431Z,37.25
2019-01-25T03:37:23.114Z,33.67
2019-01-25T03:40:03.795Z,35.40
2019-01-25T03:42:44.331Z,33.95
2019-01-25T03:45:24.727Z,33.58
2019-01-25T03:48:04.033Z,33.90
2019-01-25T03:50:52.122Z,33.18
2019-01-25T03:53:40.189Z,34.55
2019-01-25T03:56:28.195Z,34.23
2019-01-25T03:59:16.195Z,36.05
2019-01-25T04:02:23.426Z,35.78
2019-01-25T04:05:11.895Z,35.98
2019-01-25T04:07:52.936Z,33.90
2019-01-25T04:10:33.736Z,36.03
2019-01-25T04:13:14.541Z,38.28
2019-01-25T04:15:55.284Z,36.85
2019-01-25T04:18:36.039Z,37.60
2019-01-25T04:21:16.601Z,28.85
2019-01-25T04:23:57.262Z,24.35
2019-01-25T04:26:38.046Z,24.55
2019-01-25T04:29:18.851Z,28.98
2019-01-25T04:31:59.539Z,31.33
2019-01-25T04:34:40.242Z,33.98
2019-01-25T04:37:20.892Z,35.65
2019-01-25T04:40:01.711Z,35.98
2019-01-25T04:42:42.622Z,37.80
2019-01-25T04:45:23.327Z,28.62
2019-01-25T04:48:04.055Z,32.98
2019-01-25T04:50:44.847Z,31.60
2019-01-25T04:53:25.583Z,30.27
2019-01-25T04:56:06.243Z,27.15
2019-01-25T04:58:46.692Z,23.40
2019-01-25T05:01:27.230Z,28.55
2019-01-25T05:04:07.896Z,30.70
2019-01-25T05:06:48.311Z,31.17
2019-01-25T05:09:28.772Z,30.72
2019-01-25T05:12:09.295Z,27.37
2019-01-25T05:14:49.788Z,29.27
2019-01-25T05:17:30.458Z,26.45
2019-01-25T05:20:11.052Z,24.47
2019-01-25T05:22:52.383Z,21.10
2019-01-25T05:25:33.164Z,23.70
2019-01-25T05:28:13.811Z,24.98
2019-01-25T05:30:54.624Z,25.77
2019-01-25T05:33:35.308Z,28.27
2019-01-25T05:36:15.969Z,28.00
2019-01-25T05:38:56.504Z,29.82
2019-01-25T05:41:37.244Z,30.95
2019-01-25T05:44:17.939Z,30.20
2019-01-25T05:46:58.732Z,29.02
2019-01-25T05:49:39.658Z,30.55
2019-01-25T05:52:20.488Z,27.58
2019-01-25T05:55:01.130Z,32.13
2019-01-25T05:57:41.780Z,30.00
2019-01-25T06:00:27.654Z,32.85
2019-01-25T06:03:08.552Z,28.23
2019-01-25T06:05:49.040Z,24.87
2019-01-25T06:08:34.055Z,24.27
2019-01-25T06:11:14.839Z,24.02
2019-01-25T06:13:55.563Z,27.75
2019-01-25T06:16:36.380Z,26.87
2019-01-25T06:19:16.979Z,30.12
2019-01-25T06:21:57.669Z,27.90
2019-01-25T06:24:38.363Z,26.70
2019-01-25T06:27:18.670Z,26.77
2019-01-25T06:29:59.208Z,28.38
2019-01-25T06:32:39.895Z,24.87
2019-01-25T06:35:20.645Z,26.05
2019-01-25T06:38:01.255Z,26.80
2019-01-25T06:40:41.880Z,25.15
2019-01-25T06:43:23.164Z,29.27
2019-01-25T06:45:52.115Z,28.47
2019-01-25T06:48:40.123Z,32.20
2019-01-25T06:51:28.114Z,28.85
2019-01-25T06:54:16.139Z,27.10
2019-01-25T07:00:01.815Z,24.80
2019-01-25T07:02:49.832Z,29.18
2019-01-25T07:05:37.830Z,30.82
2019-01-25T07:08:19.427Z,30.48
2019-01-25T07:11:00.511Z,33.95
2019-01-25T07:13:41.179Z,31.93
2019-01-25T07:16:22.072Z,32.40
2019-01-25T07:19:03.095Z,29.80
2019-01-25T07:21:43.624Z,29.63
2019-01-25T07:24:24.376Z,27.32
2019-01-25T07:27:05.182Z,31.15
2019-01-25T07:29:46.040Z,31.85
2019-01-25T07:32:27.475Z,34.20
2019-01-25T07:35:07.848Z,34.53
2019-01-25T07:37:48.756Z,35.15
2019-01-25T07:40:29.677Z,31.40
2019-01-25T07:43:10.565Z,30.97
2019-01-25T07:45:51.504Z,29.37
2019-01-25T07:48:31.833Z,29.10
2019-01-25T07:51:12.510Z,29.65
2019-01-25T07:53:54.475Z,33.65
2019-01-25T07:56:35.212Z,29.77
2019-01-25T07:59:15.697Z,27.73
2019-01-25T08:01:56.597Z,29.67
2019-01-25T08:04:37.337Z,31.05
2019-01-25T08:07:18.105Z,30.35
2019-01-25T08:09:59.124Z,30.72
2019-01-25T08:12:40.005Z,27.95
2019-01-25T08:15:20.827Z,31.27
2019-01-25T08:18:01.320Z,27.60
2019-01-25T08:20:43.092Z,29.32
2019-01-25T08:23:23.712Z,30.55
2019-01-25T08:26:04.388Z,30.08
2019-01-25T08:28:44.976Z,30.60
2019-01-25T08:31:25.755Z,29.15
2019-01-25T08:34:06.322Z,27.58
2019-01-25T08:36:47.657Z,30.25
2019-01-25T08:39:28.103Z,31.82
2019-01-25T08:42:15.245Z,29.55
2019-01-25T08:44:50.993Z,32.38
2019-01-25T08:47:31.466Z,30.30
2019-01-25T08:50:11.948Z,32.00
2019-01-25T08:52:52.675Z,27.77
2019-01-25T08:55:33.230Z,32.50
2019-01-25T08:58:13.812Z,31.30
2019-01-25T09:00:55.188Z,31.65
2019-01-25T09:03:35.664Z,27.70
2019-01-25T09:06:16.366Z,28.17
2019-01-25T09:08:57.138Z,29.27
2019-01-25T09:11:37.706Z,24.35
2019-01-25T09:14:18.515Z,27.20
2019-01-25T09:16:59.351Z,28.60
2019-01-25T09:19:39.963Z,29.00
2019-01-25T09:22:20.911Z,29.25
2019-01-25T09:25:01.511Z,27.87
2019-01-25T09:27:42.527Z,29.63
2019-01-25T09:30:23.235Z,29.37
2019-01-25T09:33:05.006Z,28.62
2019-01-25T09:35:45.631Z,25.77
2019-01-25T09:38:26.391Z,26.57
2019-01-25T09:41:07.195Z,28.95
2019-01-25T09:43:47.673Z,26.30
2019-01-25T09:46:30.078Z,26.00
2019-01-25T09:49:11.244Z,27.42
2019-01-25T09:51:51.800Z,26.30
2019-01-25T09:54:32.532Z,26.17
2019-01-25T09:57:13.187Z,24.40
2019-01-25T09:59:53.979Z,26.05
2019-01-25T10:02:35.605Z,24.87
2019-01-25T10:05:16.083Z,25.52
2019-01-25T10:07:56.636Z,25.80
2019-01-25T10:10:37.280Z,26.25
2019-01-25T10:13:18.164Z,25.62
2019-01-25T10:15:58.924Z,27.50
2019-01-25T10:18:39.703Z,28.30
2019-01-25T10:21:20.407Z,27.95
2019-01-25T10:24:01.220Z,22.85
2019-01-25T10:26:41.878Z,27.25
2019-01-25T10:29:22.561Z,24.98
2019-01-25T10:32:03.705Z,26.93
2019-01-25T10:34:44.414Z,26.68
2019-01-25T10:37:24.971Z,26.02
2019-01-25T10:40:05.677Z,28.10
2019-01-25T10:42:52.994Z,25.45
2019-01-25T10:45:29.009Z,26.37
2019-01-25T10:48:09.698Z,26.35
2019-01-25T10:50:50.408Z,28.17
2019-01-25T10:53:31.410Z,25.85
2019-01-25T10:56:12.242Z,26.87
2019-01-25T10:58:52.818Z,26.15
2019-01-25T11:01:33.535Z,25.20
2019-01-25T11:04:14.076Z,28.35
2019-01-25T11:06:54.935Z,27.55
2019-01-25T11:09:38.047Z,25.17
2019-01-25T11:12:18.422Z,26.93
2019-01-25T11:15:01.248Z,25.75
2019-01-25T11:17:42.091Z,27.58
2019-01-25T11:20:22.841Z,25.80
2019-01-25T11:23:03.229Z,28.20
2019-01-25T11:25:43.706Z,26.05
2019-01-25T11:28:24.703Z,25.95
2019-01-25T11:31:05.106Z,25.20
2019-01-25T11:33:45.508Z,27.95
2019-01-25T11:36:26.107Z,26.85
2019-01-25T11:39:06.926Z,27.75
2019-01-25T11:41:47.544Z,25.25
2019-01-25T11:44:28.380Z,24.30
2019-01-25T11:47:09.173Z,24.90
2019-01-25T11:49:49.880Z,28.25
2019-01-25T11:52:30.551Z,23.87
2019-01-25T11:55:12.693Z,28.12
2019-01-25T11:57:53.776Z,27.90
2019-01-25T12:00:35.563Z,28.05
2019-01-25T12:03:16.336Z,29.10
2019-01-25T12:05:56.975Z,23.25
2019-01-25T12:08:37.408Z,22.87
2019-01-25T12:11:18.099Z,24.40
2019-01-25T12:13:58.678Z,23.40
2019-01-25T12:16:39.456Z,25.25
2019-01-25T12:19:20.111Z,24.20
2019-01-25T12:22:00.748Z,22.15
2019-01-25T12:24:41.575Z,23.05
2019-01-25T12:27:22.423Z,24.15
2019-01-25T12:30:03.305Z,21.95
2019-01-25T12:32:44.149Z,22.05
2019-01-25T12:35:24.899Z,19.87
2019-01-25T12:38:05.651Z,22.20
2019-01-25T12:40:46.332Z,20.37
2019-01-25T12:43:26.875Z,20.37
2019-01-25T12:46:07.732Z,20.15
2019-01-25T12:48:48.279Z,20.25
2019-01-25T12:51:28.687Z,19.62
2019-01-25T12:54:09.416Z,19.10
2019-01-25T12:56:50.008Z,18.82
2019-01-25T12:59:30.679Z,17.52
2019-01-25T13:02:11.524Z,19.37
2019-01-25T13:04:52.152Z,18.20
2019-01-25T13:07:32.738Z,17.35
2019-01-25T13:10:13.541Z,17.90
2019-01-25T13:12:53.892Z,16.20
2019-01-25T13:15:34.688Z,18.70
2019-01-25T13:18:15.415Z,19.07
2019-01-25T13:20:56.048Z,17.62
2019-01-25T13:23:36.389Z,17.42
2019-01-25T13:26:17.265Z,16.45
2019-01-25T13:28:58.001Z,19.27
2019-01-25T13:31:38.453Z,19.82
2019-01-25T13:34:19.193Z,18.37
2019-01-25T13:36:59.630Z,19.90
2019-01-25T13:39:40.175Z,20.85
2019-01-25T13:42:20.841Z,18.20
2019-01-25T13:45:01.425Z,20.85
2019-01-25T13:47:42.342Z,19.75
2019-01-25T13:50:22.940Z,21.65
2019-01-25T13:53:04.940Z,20.85
2019-01-25T13:55:45.973Z,15.53
2019-01-25T13:58:26.630Z,20.15
2019-01-25T14:01:07.221Z,19.15
2019-01-25T14:03:47.897Z,18.60
2019-01-25T14:06:28.696Z,19.12
2019-01-25T14:09:09.044Z,18.50
2019-01-25T14:11:49.605Z,19.70
2019-01-25T14:14:30.139Z,18.60
2019-01-25T14:17:10.623Z,19.92
2019-01-25T14:19:51.115Z,19.73
2019-01-25T14:22:31.871Z,19.32
2019-01-25T14:25:12.489Z,17.35
2019-01-25T14:27:53.108Z,18.30
2019-01-25T14:30:33.812Z,19.30
2019-01-25T14:33:15.110Z,19.10
2019-01-25T14:35:55.656Z,20.12
2019-01-25T14:38:36.146Z,19.57
2019-01-25T14:41:16.898Z,19.02
2019-01-25T14:43:57.736Z,19.45
2019-01-25T14:46:38.806Z,19.15
2019-01-25T14:49:19.379Z,21.50
2019-01-25T14:52:00.630Z,20.25
2019-01-25T14:54:41.547Z,18.65
2019-01-25T14:57:22.184Z,17.37
2019-01-25T15:00:02.709Z,18.92
2019-01-25T15:02:43.451Z,19.27
2019-01-25T15:05:24.072Z,19.20
2019-01-25T15:08:04.559Z,17.80
2019-01-25T15:10:45.118Z,18.42
2019-01-25T15:13:25.488Z,20.95
2019-01-25T15:16:07.318Z,18.48
2019-01-25T15:18:48.498Z,20.50
2019-01-25T15:21:29.055Z,19.20
2019-01-25T15:24:08.141Z,19.57
2019-01-25T15:26:56.147Z,18.02
2019-01-25T15:29:44.145Z,18.20
2019-01-25T15:32:32.215Z,18.20
2019-01-25T15:35:20.671Z,17.37
2019-01-25T15:38:08.752Z,19.50
2019-01-25T15:40:56.813Z,18.62
2019-01-25T15:43:44.830Z,17.95
2019-01-25T15:46:32.855Z,20.00
2019-01-25T15:49:20.923Z,19.52
2019-01-25T15:52:09.007Z,19.70
2019-01-25T15:54:57.009Z,18.15
2019-01-25T15:57:45.016Z,17.12
2019-01-25T16:00:35.192Z,19.95
2019-01-25T16:03:23.268Z,17.80
2019-01-25T16:06:11.351Z,19.75
2019-01-25T16:08:54.142Z,20.30
2019-01-25T16:11:55.435Z,19.48
2019-01-25T16:14:58.769Z,17.95
2019-01-25T16:18:00.396Z,19.87
2019-01-25T16:20:49.882Z,17.73
2019-01-25T16:24:01.260Z,18.67
2019-01-25T16:27:11.113Z,18.67
2019-01-25T16:30:04.174Z,19.40
2019-01-25T16:32:53.001Z,17.77
2019-01-25T16:36:00.388Z,21.35
2019-01-25T16:38:48.410Z,18.67
2019-01-25T16:41:48.206Z,17.92
2019-01-25T16:44:26.250Z,17.65
2019-01-25T16:47:14.280Z,18.05
2019-01-25T16:50:02.293Z,18.67
2019-01-25T16:52:50.374Z,18.65
2019-01-25T16:55:31.087Z,17.20
2019-01-25T16:58:09.082Z,16.23
2019-01-25T17:00:57.129Z,18.98
2019-01-25T17:03:45.140Z,17.65
2019-01-25T17:06:33.145Z,14.30
2019-01-25T17:09:13.983Z,16.80
2019-01-25T17:11:54.759Z,16.57
2019-01-25T17:14:35.621Z,15.38
2019-01-25T17:17:16.292Z,17.98
2019-01-25T17:19:56.718Z,18.05
2019-01-25T17:22:37.683Z,17.90
2019-01-25T17:25:18.509Z,15.40
2019-01-25T17:27:59.039Z,17.90
2019-01-25T17:30:39.738Z,17.98
2019-01-25T17:33:20.176Z,16.57
2019-01-25T17:36:00.908Z,16.35
2019-01-25T17:38:41.696Z,16.62
2019-01-25T17:41:22.324Z,15.60
2019-01-25T17:44:03.051Z,16.10
2019-01-25T17:46:43.936Z,16.60
2019-01-25T17:49:24.707Z,16.55
2019-01-25T17:52:05.500Z,16.10
2019-01-25T17:54:46.354Z,15.60
2019-01-25T17:57:27.207Z,15.68
2019-01-25T18:00:07.877Z,15.05
2019-01-25T18:02:49.889Z,17.10
2019-01-25T18:05:31.027Z,15.10
2019-01-25T18:08:12.538Z,16.55
2019-01-25T18:10:53.833Z,15.60
2019-01-25T18:13:35.130Z,15.80
2019-01-25T18:16:15.511Z,14.85
2019-01-25T18:18:56.067Z,16.32
2019-01-25T18:21:36.675Z,16.20
2019-01-25T18:24:17.286Z,15.85
2019-01-25T18:26:57.863Z,17.25
2019-01-25T18:29:38.247Z,17.40
2019-01-25T18:32:19.102Z,17.67
2019-01-25T18:34:59.487Z,18.15
2019-01-25T18:37:39.995Z,16.10
2019-01-25T18:40:20.376Z,16.55
2019-01-25T18:43:01.643Z,18.32
2019-01-25T18:45:42.229Z,17.75
2019-01-25T18:48:23.160Z,20.62
2019-01-25T18:51:03.892Z,18.82
2019-01-25T18:53:45.559Z,19.95
2019-01-25T18:56:26.256Z,19.67
2019-01-25T18:59:06.987Z,17.52
2019-01-25T19:01:47.604Z,18.15
2019-01-25T19:04:28.768Z,20.23
2019-01-25T19:07:09.557Z,17.77
2019-01-25T19:09:49.916Z,20.52
2019-01-25T19:12:30.635Z,18.95
2019-01-25T19:15:11.004Z,19.45
2019-01-25T19:17:51.685Z,20.35
2019-01-25T19:20:32.392Z,19.87
2019-01-25T19:23:13.199Z,19.35
2019-01-25T19:25:53.984Z,21.40
2019-01-25T19:28:34.786Z,21.37
2019-01-25T19:31:15.472Z,22.07
2019-01-25T19:33:56.493Z,22.75
2019-01-25T19:36:37.194Z,24.67
2019-01-25T19:39:17.797Z,22.87
2019-01-25T19:41:58.447Z,22.58
2019-01-25T19:44:39.491Z,22.98
2019-01-25T19:47:20.060Z,25.92
2019-01-25T19:50:00.993Z,26.82
2019-01-25T19:52:41.648Z,24.98
2019-01-25T19:55:22.248Z,25.50
2019-01-25T19:58:02.964Z,27.95
2019-01-25T20:00:43.673Z,29.90
2019-01-25T20:03:24.020Z,30.52
2019-01-25T20:06:04.828Z,29.10
2019-01-25T20:08:45.508Z,27.13
2019-01-25T20:11:26.310Z,29.57
2019-01-25T20:14:07.012Z,30.95
2019-01-25T20:16:47.867Z,30.68
2019-01-25T20:19:28.611Z,33.25
2019-01-25T20:22:09.243Z,29.30
2019-01-25T20:24:49.880Z,32.40
2019-01-25T20:27:30.255Z,28.23
2019-01-25T20:30:10.975Z,29.75
2019-01-25T20:32:51.559Z,31.30
2019-01-25T20:35:33.726Z,30.82
2019-01-25T20:38:14.803Z,28.75
2019-01-25T20:40:55.501Z,26.02
2019-01-25T20:43:36.219Z,28.10
2019-01-25T20:46:16.801Z,29.75
2019-01-25T20:48:57.385Z,31.02
2019-01-25T20:51:38.010Z,30.00
2019-01-25T20:54:18.964Z,28.77
2019-01-25T20:57:00.716Z,26.20
2019-01-25T20:59:41.575Z,27.87
2019-01-25T21:02:23.531Z,28.55
2019-01-25T21:05:04.879Z,28.30
2019-01-25T21:07:47.251Z,28.92
2019-01-25T21:10:28.377Z,28.70
2019-01-25T21:13:09.679Z,30.17
2019-01-25T21:15:50.766Z,28.32
2019-01-25T21:18:31.610Z,28.73
2019-01-25T21:21:12.351Z,28.15
2019-01-25T21:23:53.319Z,25.62
2019-01-25T21:29:23.197Z,27.90
2019-01-25T21:32:04.542Z,28.25
2019-01-25T21:34:45.001Z,27.55
2019-01-25T21:37:25.760Z,29.72
2019-01-25T21:40:08.569Z,27.02
2019-01-25T21:45:43.168Z,27.98
2019-01-25T21:48:26.031Z,27.55
2019-01-25T21:51:07.476Z,29.63
2019-01-25T21:53:48.222Z,26.50
2019-01-25T21:56:28.875Z,28.17
2019-01-25T21:59:09.496Z,29.55
2019-01-25T22:01:50.199Z,28.57
2019-01-25T22:04:33.032Z,29.57
2019-01-25T22:07:13.707Z,28.35
2019-01-25T22:09:54.300Z,27.50
2019-01-25T22:12:35.075Z,29.27
2019-01-25T22:15:16.367Z,28.00
2019-01-25T22:17:57.206Z,25.12
2019-01-25T22:20:37.732Z,26.42
2019-01-25T22:23:18.377Z,26.68
2019-01-25T22:25:59.071Z,24.77
2019-01-25T22:28:39.627Z,25.40
2019-01-25T22:31:20.480Z,24.10
2019-01-25T22:34:01.436Z,26.60
2019-01-25T22:36:42.177Z,23.42
2019-01-25T22:39:22.854Z,24.23
2019-01-25T22:42:03.509Z,23.80
2019-01-25T22:44:44.262Z,22.05
2019-01-25T22:47:25.021Z,23.57
2019-01-25T22:50:05.563Z,20.60
2019-01-25T22:52:46.195Z,21.27
2019-01-25T22:55:27.018Z,22.55
2019-01-25T22:58:07.355Z,20.68
2019-01-25T23:00:52.013Z,22.00
2019-01-25T23:03:32.863Z,20.40
2019-01-25T23:06:13.623Z,22.62
2019-01-25T23:08:54.323Z,20.45
2019-01-25T23:11:35.305Z,22.00
2019-01-25T23:14:16.296Z,19.25
2019-01-25T23:16:56.776Z,21.20
2019-01-25T23:19:37.330Z,20.65
2019-01-25T23:22:17.976Z,22.22
2019-01-25T23:24:58.642Z,22.45
2019-01-25T23:27:39.367Z,24.12
2019-01-25T23:30:20.152Z,22.60
2019-01-25T23:33:00.674Z,22.50
2019-01-25T23:35:41.303Z,22.27
2019-01-25T23:38:22.055Z,20.23
2019-01-25T23:41:02.833Z,20.70
2019-01-25T23:43:43.635Z,19.50
2019-01-25T23:46:23.991Z,19.67
2019-01-25T23:49:04.683Z,19.12
2019-01-25T23:51:45.275Z,18.42
2019-01-25T23:54:26.178Z,20.08
2019-01-25T23:57:07.362Z,18.67
2019-01-25T23:59:48.648Z,16.23
